sensor_id;sensor_type;location;lat;lon;timestamp;pressure;altitude;pressure_sealevel;temperature
70819;BMP280;58439;51.046;13.692;2023-02-23T00:01:31;99725.75;;;6.43
70819;BMP280;58439;51.046;13.692;2023-02-23T00:04:17;99721.53;;;6.42
70819;BMP280;58439;51.046;13.692;2023-02-23T00:07:04;99723.13;;;6.43
70819;BMP280;58439;51.046;13.692;2023-02-23T00:09:53;99722.16;;;6.44
70819;BMP280;58439;51.046;13.692;2023-02-23T00:12:44;99718.59;;;6.45
70819;BMP280;58439;51.046;13.692;2023-02-23T00:15:30;99720.22;;;6.46
70819;BMP280;58439;51.046;13.692;2023-02-23T00:18:16;99714.84;;;6.48
70819;BMP280;58439;51.046;13.692;2023-02-23T00:21:02;99701.03;;;6.47
70819;BMP280;58439;51.046;13.692;2023-02-23T00:23:57;99719.03;;;6.49
70819;BMP280;58439;51.046;13.692;2023-02-23T00:26:44;99715.63;;;6.48
70819;BMP280;58439;51.046;13.692;2023-02-23T00:29:32;99706.69;;;6.51
70819;BMP280;58439;51.046;13.692;2023-02-23T00:32:27;99709.94;;;6.53
70819;BMP280;58439;51.046;13.692;2023-02-23T00:35:14;99707.00;;;6.56
70819;BMP280;58439;51.046;13.692;2023-02-23T00:38:03;99707.97;;;6.55
70819;BMP280;58439;51.046;13.692;2023-02-23T00:40:49;99708.63;;;6.57
70819;BMP280;58439;51.046;13.692;2023-02-23T00:43:40;99705.84;;;6.58
70819;BMP280;58439;51.046;13.692;2023-02-23T00:46:51;99707.09;;;6.62
70819;BMP280;58439;51.046;13.692;2023-02-23T00:49:37;99716.19;;;6.66
70819;BMP280;58439;51.046;13.692;2023-02-23T00:52:22;99710.00;;;6.68
70819;BMP280;58439;51.046;13.692;2023-02-23T00:55:11;99714.88;;;6.71
70819;BMP280;58439;51.046;13.692;2023-02-23T00:57:58;99707.06;;;6.71
70819;BMP280;58439;51.046;13.692;2023-02-23T01:00:44;99713.06;;;6.71
70819;BMP280;58439;51.046;13.692;2023-02-23T01:03:30;99714.06;;;6.70
70819;BMP280;58439;51.046;13.692;2023-02-23T01:06:16;99712.25;;;6.71
70819;BMP280;58439;51.046;13.692;2023-02-23T01:09:08;99712.72;;;6.74
70819;BMP280;58439;51.046;13.692;2023-02-23T01:11:55;99708.53;;;6.73
70819;BMP280;58439;51.046;13.692;2023-02-23T01:14:42;99707.34;;;6.76
70819;BMP280;58439;51.046;13.692;2023-02-23T01:17:28;99709.13;;;6.75
70819;BMP280;58439;51.046;13.692;2023-02-23T01:20:16;99710.59;;;6.78
70819;BMP280;58439;51.046;13.692;2023-02-23T01:23:04;99703.41;;;6.80
70819;BMP280;58439;51.046;13.692;2023-02-23T01:25:52;99709.88;;;6.84
70819;BMP280;58439;51.046;13.692;2023-02-23T01:28:40;99703.06;;;6.83
70819;BMP280;58439;51.046;13.692;2023-02-23T01:31:48;99704.22;;;6.80
70819;BMP280;58439;51.046;13.692;2023-02-23T01:34:54;99701.81;;;6.79
70819;BMP280;58439;51.046;13.692;2023-02-23T01:37:59;99700.81;;;6.80
70819;BMP280;58439;51.046;13.692;2023-02-23T01:41:04;99689.59;;;6.79
70819;BMP280;58439;51.046;13.692;2023-02-23T01:47:18;99679.22;;;6.79
70819;BMP280;58439;51.046;13.692;2023-02-23T01:50:35;99681.00;;;6.79
70819;BMP280;58439;51.046;13.692;2023-02-23T01:53:51;99680.50;;;6.83
70819;BMP280;58439;51.046;13.692;2023-02-23T01:56:45;99674.50;;;6.83
70819;BMP280;58439;51.046;13.692;2023-02-23T01:59:47;99668.31;;;6.84
70819;BMP280;58439;51.046;13.692;2023-02-23T02:02:34;99667.16;;;6.86
70819;BMP280;58439;51.046;13.692;2023-02-23T02:05:20;99667.78;;;6.88
70819;BMP280;58439;51.046;13.692;2023-02-23T02:08:07;99666.78;;;6.89
70819;BMP280;58439;51.046;13.692;2023-02-23T02:10:55;99666.59;;;6.91
70819;BMP280;58439;51.046;13.692;2023-02-23T02:13:43;99654.41;;;6.91
70819;BMP280;58439;51.046;13.692;2023-02-23T02:35:59;99652.19;;;7.03
70819;BMP280;58439;51.046;13.692;2023-02-23T02:39:20;99652.19;;;7.03
70819;BMP280;58439;51.046;13.692;2023-02-23T02:42:47;99649.44;;;7.05
70819;BMP280;58439;51.046;13.692;2023-02-23T02:49:03;99654.66;;;7.05
70819;BMP280;58439;51.046;13.692;2023-02-23T02:52:37;99649.44;;;7.05
70819;BMP280;58439;51.046;13.692;2023-02-23T02:55:44;99640.19;;;7.02
70819;BMP280;58439;51.046;13.692;2023-02-23T02:58:52;99643.78;;;7.01
70819;BMP280;58439;51.046;13.692;2023-02-23T03:02:01;99636.59;;;7.03
70819;BMP280;58439;51.046;13.692;2023-02-23T03:05:48;99635.78;;;7.03
70819;BMP280;58439;51.046;13.692;2023-02-23T03:09:32;99621.34;;;7.00
70819;BMP280;58439;51.046;13.692;2023-02-23T03:13:36;99634.00;;;7.03
70819;BMP280;58439;51.046;13.692;2023-02-23T03:17:17;99636.25;;;7.06
70819;BMP280;58439;51.046;13.692;2023-02-23T03:20:53;99632.84;;;7.06
70819;BMP280;58439;51.046;13.692;2023-02-23T03:24:37;99625.88;;;7.06
70819;BMP280;58439;51.046;13.692;2023-02-23T03:28:16;99627.66;;;7.06
70819;BMP280;58439;51.046;13.692;2023-02-23T03:35:20;99619.06;;;7.05
70819;BMP280;58439;51.046;13.692;2023-02-23T03:38:42;99622.28;;;7.07
70819;BMP280;58439;51.046;13.692;2023-02-23T03:41:52;99620.31;;;7.09
70819;BMP280;58439;51.046;13.692;2023-02-23T03:45:03;99626.16;;;7.11
70819;BMP280;58439;51.046;13.692;2023-02-23T03:48:11;99624.34;;;7.12
70819;BMP280;58439;51.046;13.692;2023-02-23T03:51:21;99631.16;;;7.13
70819;BMP280;58439;51.046;13.692;2023-02-23T03:54:37;99632.75;;;7.14
70819;BMP280;58439;51.046;13.692;2023-02-23T03:57:51;99631.34;;;7.11
70819;BMP280;58439;51.046;13.692;2023-02-23T04:01:00;99630.53;;;7.11
70819;BMP280;58439;51.046;13.692;2023-02-23T04:04:08;99632.34;;;7.10
70819;BMP280;58439;51.046;13.692;2023-02-23T04:07:20;99640.13;;;7.10
70819;BMP280;58439;51.046;13.692;2023-02-23T04:10:25;99637.16;;;7.13
70819;BMP280;58439;51.046;13.692;2023-02-23T04:13:36;99643.34;;;7.12
70819;BMP280;58439;51.046;13.692;2023-02-23T04:16:23;99638.16;;;7.12
70819;BMP280;58439;51.046;13.692;2023-02-23T04:19:10;99642.91;;;7.09
70819;BMP280;58439;51.046;13.692;2023-02-23T04:21:55;99644.72;;;7.08
70819;BMP280;58439;51.046;13.692;2023-02-23T04:24:41;99640.00;;;7.04
70819;BMP280;58439;51.046;13.692;2023-02-23T04:27:27;99652.19;;;7.03
70819;BMP280;58439;51.046;13.692;2023-02-23T04:30:13;99650.59;;;7.02
70819;BMP280;58439;51.046;13.692;2023-02-23T04:33:00;99652.53;;;7.00
70819;BMP280;58439;51.046;13.692;2023-02-23T04:35:46;99642.53;;;6.97
70819;BMP280;58439;51.046;13.692;2023-02-23T04:43:14;99642.88;;;6.94
70819;BMP280;58439;51.046;13.692;2023-02-23T04:46:00;99645.00;;;6.90
70819;BMP280;58439;51.046;13.692;2023-02-23T04:48:46;99647.00;;;6.88
70819;BMP280;58439;51.046;13.692;2023-02-23T04:51:32;99645.34;;;6.87
70819;BMP280;58439;51.046;13.692;2023-02-23T04:54:19;99642.97;;;6.86
70819;BMP280;58439;51.046;13.692;2023-02-23T04:57:05;99639.91;;;6.82
70819;BMP280;58439;51.046;13.692;2023-02-23T05:00:10;99650.97;;;6.76
70819;BMP280;58439;51.046;13.692;2023-02-23T05:03:15;99641.91;;;6.72
70819;BMP280;58439;51.046;13.692;2023-02-23T05:06:20;99641.97;;;6.64
70819;BMP280;58439;51.046;13.692;2023-02-23T05:09:09;99644.13;;;6.60
70819;BMP280;58439;51.046;13.692;2023-02-23T05:11:55;99642.31;;;6.61
70819;BMP280;58439;51.046;13.692;2023-02-23T05:14:40;99643.13;;;6.61
70819;BMP280;58439;51.046;13.692;2023-02-23T05:17:27;99646.72;;;6.60
70819;BMP280;58439;51.046;13.692;2023-02-23T05:20:13;99643.50;;;6.58
70819;BMP280;58439;51.046;13.692;2023-02-23T05:22:59;99637.31;;;6.59
70819;BMP280;58439;51.046;13.692;2023-02-23T05:25:45;99642.84;;;6.56
70819;BMP280;58439;51.046;13.692;2023-02-23T05:28:33;99642.22;;;6.54
70819;BMP280;58439;51.046;13.692;2023-02-23T05:31:19;99643.03;;;6.55
70819;BMP280;58439;51.046;13.692;2023-02-23T05:34:05;99649.22;;;6.54
70819;BMP280;58439;51.046;13.692;2023-02-23T05:36:51;99643.34;;;6.52
70819;BMP280;58439;51.046;13.692;2023-02-23T05:39:39;99645.31;;;6.50
70819;BMP280;58439;51.046;13.692;2023-02-23T05:42:25;99646.13;;;6.50
70819;BMP280;58439;51.046;13.692;2023-02-23T05:45:14;99652.31;;;6.49
70819;BMP280;58439;51.046;13.692;2023-02-23T05:48:00;99650.88;;;6.47
70819;BMP280;58439;51.046;13.692;2023-02-23T05:50:46;99655.59;;;6.43
70819;BMP280;58439;51.046;13.692;2023-02-23T05:53:32;99648.81;;;6.42
70819;BMP280;58439;51.046;13.692;2023-02-23T05:56:21;99650.75;;;6.40
70819;BMP280;58439;51.046;13.692;2023-02-23T05:59:07;99652.06;;;6.36
70819;BMP280;58439;51.046;13.692;2023-02-23T06:02:34;99663.09;;;6.38
70819;BMP280;58439;51.046;13.692;2023-02-23T06:09:08;99657.25;;;6.36
70819;BMP280;58439;51.046;13.692;2023-02-23T06:12:01;99656.13;;;6.38
70819;BMP280;58439;51.046;13.692;2023-02-23T06:14:47;99671.53;;;6.40
70819;BMP280;58439;51.046;13.692;2023-02-23T06:17:36;99673.16;;;6.41
70819;BMP280;58439;51.046;13.692;2023-02-23T06:20:32;99669.25;;;6.45
70819;BMP280;58439;51.046;13.692;2023-02-23T06:23:18;99678.78;;;6.53
70819;BMP280;58439;51.046;13.692;2023-02-23T06:26:12;99681.13;;;6.62
70819;BMP280;58439;51.046;13.692;2023-02-23T06:28:57;99686.09;;;6.72
70819;BMP280;58439;51.046;13.692;2023-02-23T06:32:24;99681.47;;;6.82
70819;BMP280;58439;51.046;13.692;2023-02-23T06:35:12;99685.78;;;6.90
70819;BMP280;58439;51.046;13.692;2023-02-23T06:37:58;99688.53;;;6.97
70819;BMP280;58439;51.046;13.692;2023-02-23T06:40:44;99682.78;;;7.01
70819;BMP280;58439;51.046;13.692;2023-02-23T06:48:27;99680.84;;;7.18
70819;BMP280;58439;51.046;13.692;2023-02-23T06:51:13;99677.09;;;7.21
70819;BMP280;58439;51.046;13.692;2023-02-23T06:53:59;99681.94;;;7.24
70819;BMP280;58439;51.046;13.692;2023-02-23T06:57:01;99681.56;;;7.27
70819;BMP280;58439;51.046;13.692;2023-02-23T06:59:47;99684.44;;;7.32
70819;BMP280;58439;51.046;13.692;2023-02-23T07:02:34;99682.31;;;7.35
70819;BMP280;58439;51.046;13.692;2023-02-23T07:05:39;99680.78;;;7.41
70819;BMP280;58439;51.046;13.692;2023-02-23T07:08:46;99681.06;;;7.46
70819;BMP280;58439;51.046;13.692;2023-02-23T07:11:50;99683.75;;;7.53
70819;BMP280;58439;51.046;13.692;2023-02-23T07:14:54;99685.47;;;7.60
70819;BMP280;58439;51.046;13.692;2023-02-23T07:17:58;99689.59;;;7.69
70819;BMP280;58439;51.046;13.692;2023-02-23T07:20:46;99691.28;;;7.77
70819;BMP280;58439;51.046;13.692;2023-02-23T07:23:34;99694.13;;;7.82
70819;BMP280;58439;51.046;13.692;2023-02-23T08:50:57;99711.13;;;9.84
70819;BMP280;58439;51.046;13.692;2023-02-23T08:54:03;99702.69;;;9.88
70819;BMP280;58439;51.046;13.692;2023-02-23T08:57:06;99709.34;;;9.98
70819;BMP280;58439;51.046;13.692;2023-02-23T09:00:11;99701.53;;;10.04
70819;BMP280;58439;51.046;13.692;2023-02-23T09:03:20;99711.03;;;10.18
70819;BMP280;58439;51.046;13.692;2023-02-23T09:06:26;99713.28;;;10.28
70819;BMP280;58439;51.046;13.692;2023-02-23T09:09:30;99711.47;;;10.35
70819;BMP280;58439;51.046;13.692;2023-02-23T09:12:35;99714.91;;;10.42
70819;BMP280;58439;51.046;13.692;2023-02-23T09:15:40;99718.56;;;10.55
70819;BMP280;58439;51.046;13.692;2023-02-23T09:18:45;99708.91;;;10.62
70819;BMP280;58439;51.046;13.692;2023-02-23T09:21:31;99713.94;;;10.70
70819;BMP280;58439;51.046;13.692;2023-02-23T09:25:09;99713.34;;;10.94
70819;BMP280;58439;51.046;13.692;2023-02-23T09:28:45;99711.06;;;11.31
70819;BMP280;58439;51.046;13.692;2023-02-23T09:32:23;99707.59;;;11.44
70819;BMP280;58439;51.046;13.692;2023-02-23T09:35:34;99704.38;;;11.55
70819;BMP280;58439;51.046;13.692;2023-02-23T09:39:17;99712.09;;;11.81
70819;BMP280;58439;51.046;13.692;2023-02-23T09:43:49;99713.56;;;12.15
70819;BMP280;58439;51.046;13.692;2023-02-23T09:48:22;99708.66;;;12.76
70819;BMP280;58439;51.046;13.692;2023-02-23T09:52:00;99705.94;;;13.07
70819;BMP280;58439;51.046;13.692;2023-02-23T09:55:40;99704.53;;;13.78
70819;BMP280;58439;51.046;13.692;2023-02-23T09:58:48;99706.22;;;14.02
70819;BMP280;58439;51.046;13.692;2023-02-23T10:05:23;99707.94;;;13.78
70819;BMP280;58439;51.046;13.692;2023-02-23T10:09:10;99705.44;;;14.13
70819;BMP280;58439;51.046;13.692;2023-02-23T10:12:29;99709.84;;;14.31
70819;BMP280;58439;51.046;13.692;2023-02-23T10:16:18;99707.69;;;14.98
70819;BMP280;58439;51.046;13.692;2023-02-23T10:19:43;99703.84;;;15.18
70819;BMP280;58439;51.046;13.692;2023-02-23T10:22:51;99708.63;;;15.32
70819;BMP280;58439;51.046;13.692;2023-02-23T10:25:59;99709.16;;;15.06
70819;BMP280;58439;51.046;13.692;2023-02-23T10:29:28;99699.53;;;15.00
70819;BMP280;58439;51.046;13.692;2023-02-23T10:32:49;99697.25;;;15.03
70819;BMP280;58439;51.046;13.692;2023-02-23T10:36:01;99696.50;;;15.20
70819;BMP280;58439;51.046;13.692;2023-02-23T10:39:12;99693.13;;;15.64
70819;BMP280;58439;51.046;13.692;2023-02-23T10:42:23;99697.53;;;17.15
70819;BMP280;58439;51.046;13.692;2023-02-23T10:45:19;99696.06;;;18.15
70819;BMP280;58439;51.046;13.692;2023-02-23T10:48:21;99697.72;;;18.74
70819;BMP280;58439;51.046;13.692;2023-02-23T10:51:23;99698.25;;;18.23
70819;BMP280;58439;51.046;13.692;2023-02-23T10:54:39;99690.66;;;17.68
70819;BMP280;58439;51.046;13.692;2023-02-23T10:57:33;99687.34;;;17.56
70819;BMP280;58439;51.046;13.692;2023-02-23T11:03:24;99677.53;;;18.20
70819;BMP280;58439;51.046;13.692;2023-02-23T11:06:34;99685.00;;;18.76
70819;BMP280;58439;51.046;13.692;2023-02-23T11:12:38;99675.06;;;19.18
70819;BMP280;58439;51.046;13.692;2023-02-23T11:15:31;99663.66;;;19.13
70819;BMP280;58439;51.046;13.692;2023-02-23T11:18:39;99659.47;;;19.37
70819;BMP280;58439;51.046;13.692;2023-02-23T11:21:32;99659.09;;;20.30
70819;BMP280;58439;51.046;13.692;2023-02-23T11:24:39;99655.09;;;20.92
70819;BMP280;58439;51.046;13.692;2023-02-23T11:27:26;99661.91;;;21.08
70819;BMP280;58439;51.046;13.692;2023-02-23T11:30:13;99652.19;;;21.62
70819;BMP280;58439;51.046;13.692;2023-02-23T11:33:19;99647.53;;;22.01
70819;BMP280;58439;51.046;13.692;2023-02-23T11:36:30;99650.47;;;22.47
70819;BMP280;58439;51.046;13.692;2023-02-23T11:39:19;99649.09;;;23.52
70819;BMP280;58439;51.046;13.692;2023-02-23T11:42:22;99648.88;;;23.49
70819;BMP280;58439;51.046;13.692;2023-02-23T11:49:32;99641.03;;;24.84
70819;BMP280;58439;51.046;13.692;2023-02-23T11:52:24;99643.25;;;25.05
70819;BMP280;58439;51.046;13.692;2023-02-23T11:55:17;99632.19;;;25.06
70819;BMP280;58439;51.046;13.692;2023-02-23T11:58:37;99636.25;;;24.95
70819;BMP280;58439;51.046;13.692;2023-02-23T12:01:45;99632.44;;;24.51
70819;BMP280;58439;51.046;13.692;2023-02-23T12:04:36;99633.09;;;24.21
70819;BMP280;58439;51.046;13.692;2023-02-23T12:07:36;99632.31;;;24.21
70819;BMP280;58439;51.046;13.692;2023-02-23T12:10:42;99629.72;;;23.61
70819;BMP280;58439;51.046;13.692;2023-02-23T12:13:42;99620.06;;;23.18
70819;BMP280;58439;51.046;13.692;2023-02-23T12:16:39;99618.63;;;22.75
70819;BMP280;58439;51.046;13.692;2023-02-23T12:19:39;99614.50;;;22.64
70819;BMP280;58439;51.046;13.692;2023-02-23T12:22:38;99614.97;;;22.47
70819;BMP280;58439;51.046;13.692;2023-02-23T12:36:56;99592.66;;;21.52
70819;BMP280;58439;51.046;13.692;2023-02-23T12:53:40;99588.69;;;23.57
70819;BMP280;58439;51.046;13.692;2023-02-23T12:57:19;99579.34;;;22.94
70819;BMP280;58439;51.046;13.692;2023-02-23T13:07:22;99576.31;;;21.01
70819;BMP280;58439;51.046;13.692;2023-02-23T13:10:53;99576.94;;;19.59
70819;BMP280;58439;51.046;13.692;2023-02-23T13:14:29;99574.47;;;18.66
70819;BMP280;58439;51.046;13.692;2023-02-23T13:22:31;99579.94;;;17.23
70819;BMP280;58439;51.046;13.692;2023-02-23T13:26:05;99573.66;;;16.53
70819;BMP280;58439;51.046;13.692;2023-02-23T13:29:38;99572.28;;;16.12
70819;BMP280;58439;51.046;13.692;2023-02-23T13:32:43;99568.44;;;15.98
70819;BMP280;58439;51.046;13.692;2023-02-23T13:35:47;99566.97;;;15.90
70819;BMP280;58439;51.046;13.692;2023-02-23T13:39:42;99561.63;;;15.68
70819;BMP280;58439;51.046;13.692;2023-02-23T13:46:52;99570.13;;;15.53
70819;BMP280;58439;51.046;13.692;2023-02-23T13:50:18;99564.19;;;15.46
70819;BMP280;58439;51.046;13.692;2023-02-23T13:53:44;99570.78;;;15.32
70819;BMP280;58439;51.046;13.692;2023-02-23T14:02:34;99564.94;;;15.01
70819;BMP280;58439;51.046;13.692;2023-02-23T14:05:43;99564.19;;;14.89
70819;BMP280;58439;51.046;13.692;2023-02-23T14:08:42;99570.50;;;14.88
70819;BMP280;58439;51.046;13.692;2023-02-23T14:11:48;99558.75;;;14.79
70819;BMP280;58439;51.046;13.692;2023-02-23T14:20:16;99571.03;;;14.50
70819;BMP280;58439;51.046;13.692;2023-02-23T14:26:34;99569.13;;;14.34
70819;BMP280;58439;51.046;13.692;2023-02-23T14:29:24;99563.41;;;14.25
70819;BMP280;58439;51.046;13.692;2023-02-23T14:38:30;99573.81;;;14.08
70819;BMP280;58439;51.046;13.692;2023-02-23T14:41:55;99568.66;;;14.02
70819;BMP280;58439;51.046;13.692;2023-02-23T14:44:45;99567.47;;;13.86
70819;BMP280;58439;51.046;13.692;2023-02-23T14:47:44;99571.13;;;13.73
70819;BMP280;58439;51.046;13.692;2023-02-23T14:50:40;99565.72;;;13.56
70819;BMP280;58439;51.046;13.692;2023-02-23T14:53:32;99564.31;;;13.42
70819;BMP280;58439;51.046;13.692;2023-02-23T14:56:23;99572.03;;;13.25
70819;BMP280;58439;51.046;13.692;2023-02-23T15:03:13;99567.94;;;13.11
70819;BMP280;58439;51.046;13.692;2023-02-23T15:05:43;99566.78;;;13.07
70819;BMP280;58439;51.046;13.692;2023-02-23T15:11:19;99567.16;;;12.92
70819;BMP280;58439;51.046;13.692;2023-02-23T15:14:35;99557.31;;;12.88
70819;BMP280;58439;51.046;13.692;2023-02-23T15:17:10;99559.59;;;12.84
70819;BMP280;58439;51.046;13.692;2023-02-23T15:19:39;99560.84;;;12.82
70819;BMP280;58439;51.046;13.692;2023-02-23T15:22:07;99560.84;;;12.82
70819;BMP280;58439;51.046;13.692;2023-02-23T15:24:48;99556.50;;;12.87
70819;BMP280;58439;51.046;13.692;2023-02-23T15:31:54;99553.53;;;13.02
70819;BMP280;58439;51.046;13.692;2023-02-23T15:35:02;99553.53;;;13.02
70819;BMP280;58439;51.046;13.692;2023-02-23T15:37:49;99554.53;;;13.01
70819;BMP280;58439;51.046;13.692;2023-02-23T15:40:37;99556.03;;;12.97
70819;BMP280;58439;51.046;13.692;2023-02-23T15:43:08;99551.63;;;12.91
70819;BMP280;58439;51.046;13.692;2023-02-23T15:45:45;99555.13;;;12.85
70819;BMP280;58439;51.046;13.692;2023-02-23T15:48:22;99558.22;;;12.82
70819;BMP280;58439;51.046;13.692;2023-02-23T15:50:56;99558.66;;;12.79
70819;BMP280;58439;51.046;13.692;2023-02-23T15:53:37;99557.47;;;12.74
70819;BMP280;58439;51.046;13.692;2023-02-23T15:56:14;99558.94;;;12.70
70819;BMP280;58439;51.046;13.692;2023-02-23T15:58:49;99551.75;;;12.66
70819;BMP280;58439;51.046;13.692;2023-02-23T16:01:32;99563.44;;;12.63
70819;BMP280;58439;51.046;13.692;2023-02-23T16:04:15;99567.28;;;12.61
70819;BMP280;58439;51.046;13.692;2023-02-23T16:07:05;99563.88;;;12.60
70819;BMP280;58439;51.046;13.692;2023-02-23T16:09:38;99566.97;;;12.57
70819;BMP280;58439;51.046;13.692;2023-02-23T16:12:16;99569.78;;;12.56
70819;BMP280;58439;51.046;13.692;2023-02-23T16:14:51;99563.59;;;12.50
70819;BMP280;58439;51.046;13.692;2023-02-23T16:17:41;99564.00;;;12.47
70819;BMP280;58439;51.046;13.692;2023-02-23T16:20:35;99567.06;;;12.44
70819;BMP280;58439;51.046;13.692;2023-02-23T16:23:10;99567.50;;;12.41
70819;BMP280;58439;51.046;13.692;2023-02-23T16:25:57;99566.50;;;12.42
70819;BMP280;58439;51.046;13.692;2023-02-23T16:28:44;99572.72;;;12.41
70819;BMP280;58439;51.046;13.692;2023-02-23T16:31:22;99559.03;;;12.39
70819;BMP280;58439;51.046;13.692;2023-02-23T16:33:56;99560.91;;;12.38
70819;BMP280;58439;51.046;13.692;2023-02-23T16:37:15;99559.25;;;12.37
70819;BMP280;58439;51.046;13.692;2023-02-23T16:39:44;99561.53;;;12.34
70819;BMP280;58439;51.046;13.692;2023-02-23T16:45:30;99556.38;;;12.21
70819;BMP280;58439;51.046;13.692;2023-02-23T16:48:17;99553.63;;;12.15
70819;BMP280;58439;51.046;13.692;2023-02-23T16:50:47;99557.69;;;12.11
70819;BMP280;58439;51.046;13.692;2023-02-23T16:53:57;99558.34;;;12.07
70819;BMP280;58439;51.046;13.692;2023-02-23T16:56:30;99560.78;;;12.02
70819;BMP280;58439;51.046;13.692;2023-02-23T16:59:13;99564.63;;;11.99
70819;BMP280;58439;51.046;13.692;2023-02-23T17:01:43;99566.66;;;11.97
70819;BMP280;58439;51.046;13.692;2023-02-23T17:04:21;99563.22;;;11.97
70819;BMP280;58439;51.046;13.692;2023-02-23T17:06:49;99575.53;;;11.96
70819;BMP280;58439;51.046;13.692;2023-02-23T17:09:24;99573.97;;;11.95
70819;BMP280;58439;51.046;13.692;2023-02-23T17:11:51;99578.00;;;11.91
70819;BMP280;58439;51.046;13.692;2023-02-23T17:14:26;99575.38;;;11.91
70819;BMP280;58439;51.046;13.692;2023-02-23T17:17:13;99566.91;;;11.89
70819;BMP280;58439;51.046;13.692;2023-02-23T17:19:41;99574.78;;;11.89
70819;BMP280;58439;51.046;13.692;2023-02-23T17:22:11;99572.41;;;11.87
70819;BMP280;58439;51.046;13.692;2023-02-23T17:24:41;99571.59;;;11.87
70819;BMP280;58439;51.046;13.692;2023-02-23T17:30:25;99580.44;;;11.86
70819;BMP280;58439;51.046;13.692;2023-02-23T17:32:56;99580.25;;;11.87
70819;BMP280;58439;51.046;13.692;2023-02-23T17:35:25;99582.25;;;11.85
70819;BMP280;58439;51.046;13.692;2023-02-23T17:37:53;99578.03;;;11.84
70819;BMP280;58439;51.046;13.692;2023-02-23T17:40:23;99579.06;;;11.83
70819;BMP280;58439;51.046;13.692;2023-02-23T17:43:05;99578.09;;;11.78
70819;BMP280;58439;51.046;13.692;2023-02-23T17:45:35;99579.53;;;11.74
70819;BMP280;58439;51.046;13.692;2023-02-23T17:48:02;99583.75;;;11.75
70819;BMP280;58439;51.046;13.692;2023-02-23T17:50:30;99577.94;;;11.73
70819;BMP280;58439;51.046;13.692;2023-02-23T17:52:57;99578.94;;;11.72
70819;BMP280;58439;51.046;13.692;2023-02-23T17:55:56;99582.78;;;11.69
70819;BMP280;58439;51.046;13.692;2023-02-23T17:58:24;99579.78;;;11.66
70819;BMP280;58439;51.046;13.692;2023-02-23T18:00:54;99576.97;;;11.60
70819;BMP280;58439;51.046;13.692;2023-02-23T18:03:23;99574.41;;;11.54
70819;BMP280;58439;51.046;13.692;2023-02-23T18:06:09;99579.47;;;11.49
70819;BMP280;58439;51.046;13.692;2023-02-23T18:08:39;99580.09;;;11.44
70819;BMP280;58439;51.046;13.692;2023-02-23T18:11:09;99574.25;;;11.42
70819;BMP280;58439;51.046;13.692;2023-02-23T18:13:43;99564.41;;;11.38
70819;BMP280;58439;51.046;13.692;2023-02-23T18:16:13;99565.66;;;11.35
70819;BMP280;58439;51.046;13.692;2023-02-23T18:18:51;99568.06;;;11.30
70819;BMP280;58439;51.046;13.692;2023-02-23T18:21:21;99569.50;;;11.26
70819;BMP280;58439;51.046;13.692;2023-02-23T18:23:49;99564.88;;;11.21
70819;BMP280;58439;51.046;13.692;2023-02-23T18:26:26;99569.75;;;11.18
70819;BMP280;58439;51.046;13.692;2023-02-23T18:29:33;99560.69;;;11.14
70819;BMP280;58439;51.046;13.692;2023-02-23T18:32:04;99560.13;;;11.12
70819;BMP280;58439;51.046;13.692;2023-02-23T18:34:34;99560.31;;;11.10
70819;BMP280;58439;51.046;13.692;2023-02-23T18:37:02;99560.53;;;11.09
70819;BMP280;58439;51.046;13.692;2023-02-23T18:39:31;99553.69;;;11.08
70819;BMP280;58439;51.046;13.692;2023-02-23T18:42:06;99558.53;;;11.04
70819;BMP280;58439;51.046;13.692;2023-02-23T18:44:33;99558.13;;;11.00
70819;BMP280;58439;51.046;13.692;2023-02-23T18:47:01;99562.34;;;11.01
70819;BMP280;58439;51.046;13.692;2023-02-23T18:49:28;99562.56;;;11.00
70819;BMP280;58439;51.046;13.692;2023-02-23T18:51:55;99558.31;;;10.99
70819;BMP280;58439;51.046;13.692;2023-02-23T18:54:24;99565.81;;;10.95
70819;BMP280;58439;51.046;13.692;2023-02-23T18:56:52;99565.59;;;10.97
70819;BMP280;58439;51.046;13.692;2023-02-23T18:59:21;99560.38;;;10.97
70819;BMP280;58439;51.046;13.692;2023-02-23T19:01:48;99570.84;;;10.97
70819;BMP280;58439;51.046;13.692;2023-02-23T19:04:19;99565.00;;;10.95
70819;BMP280;58439;51.046;13.692;2023-02-23T19:06:46;99565.19;;;10.93
70819;BMP280;58439;51.046;13.692;2023-02-23T19:09:14;99554.09;;;10.91
70819;BMP280;58439;51.046;13.692;2023-02-23T19:11:47;99563.59;;;10.92
70819;BMP280;58439;51.046;13.692;2023-02-23T19:14:18;99557.75;;;10.90
70819;BMP280;58439;51.046;13.692;2023-02-23T19:16:58;99564.78;;;10.90
70819;BMP280;58439;51.046;13.692;2023-02-23T19:19:26;99563.22;;;10.89
70819;BMP280;58439;51.046;13.692;2023-02-23T19:21:56;99560.78;;;10.87
70819;BMP280;58439;51.046;13.692;2023-02-23T19:24:24;99564.00;;;10.89
70819;BMP280;58439;51.046;13.692;2023-02-23T19:26:52;99561.63;;;10.88
70819;BMP280;58439;51.046;13.692;2023-02-23T19:29:19;99559.97;;;10.87
70819;BMP280;58439;51.046;13.692;2023-02-23T19:31:48;99554.97;;;10.85
70819;BMP280;58439;51.046;13.692;2023-02-23T19:34:15;99558.16;;;10.87
70819;BMP280;58439;51.046;13.692;2023-02-23T19:36:43;99553.94;;;10.86
70819;BMP280;58439;51.046;13.692;2023-02-23T19:39:12;99554.75;;;10.87
70819;BMP280;58439;51.046;13.692;2023-02-23T19:41:43;99550.75;;;10.84
70819;BMP280;58439;51.046;13.692;2023-02-23T19:44:11;99545.13;;;10.81
70819;BMP280;58439;51.046;13.692;2023-02-23T19:46:41;99548.94;;;10.78
70819;BMP280;58439;51.046;13.692;2023-02-23T19:49:09;99550.75;;;10.78
70819;BMP280;58439;51.046;13.692;2023-02-23T19:51:36;99549.53;;;10.73
70819;BMP280;58439;51.046;13.692;2023-02-23T19:54:04;99543.94;;;10.70
70819;BMP280;58439;51.046;13.692;2023-02-23T19:56:32;99551.38;;;10.66
70819;BMP280;58439;51.046;13.692;2023-02-23T19:59:00;99545.75;;;10.63
70819;BMP280;58439;51.046;13.692;2023-02-23T20:01:31;99537.69;;;10.58
70819;BMP280;58439;51.046;13.692;2023-02-23T20:03:59;99540.16;;;10.53
70819;BMP280;58439;51.046;13.692;2023-02-23T20:06:41;99536.53;;;10.47
70819;BMP280;58439;51.046;13.692;2023-02-23T20:09:11;99537.94;;;10.43
70819;BMP280;58439;51.046;13.692;2023-02-23T20:11:38;99531.09;;;10.35